Time;durP1;ratioP1;P1;durP2;ratioP2;P2;SDS_P1;SDS_P2;PMS_P1;PMS_P2;Temp;Humidity;BMP_temperature;BMP_pressure;BME280_temperature;BME280_humidity;BME280_pressure;Samples;Min_cycle;Max_cycle;Signal;HPM_P1;HPM_P2
2022/03/29 00:00:27;;;;;;;;;;;;;;;10.75;60.77;101105.56;5025108;28;19921;-75
2022/03/29 00:02:53;;;;;;;;;;;;;;;10.62;61.71;101109.22;5026796;28;19921;-77
2022/03/29 00:05:18;;;;;;;;;;;;;;;10.63;62.11;101105.75;5011254;28;19917;-81
2022/03/29 00:07:44;;;;;;;;;;;;;;;10.71;61.82;101107.34;5027840;28;20402;-81
2022/03/29 00:10:09;;;;;;;;;;;;;;;10.67;61.15;101102.25;5027897;28;19948;-81
2022/03/29 00:12:35;;;;;;;;;;;;;;;10.65;61.16;101110.03;5026659;28;20097;-78
2022/03/29 00:15:02;;;;;;;;;;;;;;;10.75;60.44;101095.16;5026346;28;19932;-78
2022/03/29 00:17:27;;;;;;;;;;;;;;;10.82;60.59;101104.59;5027779;28;20341;-78
2022/03/29 00:19:53;;;;;;;;;;;;;;;10.87;59.01;101101.03;5014588;28;19921;-77
2022/03/29 00:22:18;;;;;;;;;;;;;;;10.82;59.99;101100.22;5010285;28;20016;-77
2022/03/29 00:24:43;;;;;;;;;;;;;;;10.73;60.39;101102.97;5027234;28;19929;-77
2022/03/29 00:27:09;;;;;;;;;;;;;;;10.83;59.28;101099.34;5027215;28;19984;-77
2022/03/29 00:29:35;;;;;;;;;;;;;;;10.80;60.40;101101.13;5027109;28;20000;-77
2022/03/29 00:32:00;;;;;;;;;;;;;;;10.87;59.07;101095.84;5033128;28;20380;-75
2022/03/29 00:34:25;;;;;;;;;;;;;;;10.82;60.25;101095.03;5008400;28;19925;-80
2022/03/29 00:36:50;;;;;;;;;;;;;;;10.80;60.57;101094.22;5020773;28;20409;-81
2022/03/29 00:39:16;;;;;;;;;;;;;;;10.80;59.97;101091.59;5019339;28;20008;-81
2022/03/29 00:41:41;;;;;;;;;;;;;;;10.75;60.36;101090.84;5025914;28;19943;-80
2022/03/29 00:44:07;;;;;;;;;;;;;;;10.75;60.58;101085.63;5031579;28;19939;-78
2022/03/29 00:46:33;;;;;;;;;;;;;;;10.75;60.72;101090.84;5007801;28;20350;-81
2022/03/29 00:48:58;;;;;;;;;;;;;;;10.71;60.72;101085.69;5005050;28;19980;-81
2022/03/29 00:51:23;;;;;;;;;;;;;;;10.73;60.70;101078.75;5021081;28;19929;-81
2022/03/29 00:53:49;;;;;;;;;;;;;;;10.61;61.37;101078.97;5002834;28;20401;-81
2022/03/29 00:56:16;;;;;;;;;;;;;;;10.73;60.82;101073.56;5016990;28;19945;-81
2022/03/29 00:58:41;;;;;;;;;;;;;;;10.72;60.42;101074.44;5023040;28;19925;-81
2022/03/29 01:01:09;;;;;;;;;;;;;;;10.69;60.69;101071.88;5024926;28;19928;-75
2022/03/29 01:03:35;;;;;;;;;;;;;;;10.74;60.79;101065.72;5028139;28;19928;-75
2022/03/29 01:06:00;;;;;;;;;;;;;;;10.63;60.40;101064.19;5028537;28;19921;-75
2022/03/29 01:08:27;;;;;;;;;;;;;;;10.61;60.95;101064.19;5026981;28;19920;-76
2022/03/29 01:10:53;;;;;;;;;;;;;;;10.67;60.64;101060.66;5030961;28;19929;-75
2022/03/29 01:13:19;;;;;;;;;;;;;;;10.67;60.71;101058.91;5008242;28;19928;-75
2022/03/29 01:15:45;;;;;;;;;;;;;;;10.59;61.07;101058.19;5014055;28;19929;-75
2022/03/29 01:18:11;;;;;;;;;;;;;;;10.56;61.37;101054.78;5023330;28;19922;-80
2022/03/29 01:20:37;;;;;;;;;;;;;;;10.62;61.29;101050.34;5025971;28;20326;-80
2022/03/29 01:23:03;;;;;;;;;;;;;;;10.65;61.30;101044.22;5027799;28;19940;-81
2022/03/29 01:25:36;;;;;;;;;;;;;;;10.65;59.94;101046.81;5024318;28;20392;-78
2022/03/29 01:28:03;;;;;;;;;;;;;;;10.55;60.73;101034.91;5027206;28;19921;-80
2022/03/29 01:30:29;;;;;;;;;;;;;;;10.70;59.75;101034.63;5020365;28;19936;-81
2022/03/29 01:32:54;;;;;;;;;;;;;;;10.64;60.41;101037.34;5028734;28;20437;-81
2022/03/29 01:35:22;;;;;;;;;;;;;;;10.60;60.20;101027.88;5024216;28;20732;-78
2022/03/29 01:37:47;;;;;;;;;;;;;;;10.69;59.36;101035.50;5026588;28;20043;-75
2022/03/29 01:40:17;;;;;;;;;;;;;;;10.64;60.08;101026.94;5021199;28;20039;-75
2022/03/29 01:42:48;;;;;;;;;;;;;;;10.73;59.84;101034.59;5021076;28;20074;-75
2022/03/29 01:45:13;;;;;;;;;;;;;;;10.63;59.98;101027.81;5024877;28;19921;-75
2022/03/29 01:47:39;;;;;;;;;;;;;;;10.63;60.22;101027.81;5027274;28;19929;-76
2022/03/29 01:50:04;;;;;;;;;;;;;;;10.68;59.69;101019.06;5031326;28;20394;-80
2022/03/29 01:52:36;;;;;;;;;;;;;;;10.73;59.92;101024.19;5032197;28;19921;-80
2022/03/29 01:55:02;;;;;;;;;;;;;;;10.72;59.08;101020.72;5026889;28;19929;-78
2022/03/29 01:57:27;;;;;;;;;;;;;;;10.65;60.41;101016.50;5025160;28;19921;-77
2022/03/29 02:02:36;;;;;;;;;;;;;;;10.57;60.74;101013.19;5031120;28;20290;-77
2022/03/29 02:05:02;;;;;;;;;;;;;;;10.56;60.38;101002.81;5019688;28;19914;-81
2022/03/29 02:07:27;;;;;;;;;;;;;;;10.50;60.63;101002.91;5028994;28;20125;-81
2022/03/29 02:09:52;;;;;;;;;;;;;;;10.45;61.30;101009.06;5025208;28;19921;-80
2022/03/29 02:12:18;;;;;;;;;;;;;;;10.41;61.17;101006.53;5026970;28;20034;-80
2022/03/29 02:14:43;;;;;;;;;;;;;;;10.50;61.03;100997.72;5030471;28;19924;-80
2022/03/29 02:17:08;;;;;;;;;;;;;;;10.54;61.10;100999.41;5029134;28;19995;-80
2022/03/29 02:19:34;;;;;;;;;;;;;;;10.41;61.37;100994.41;5034254;28;19929;-80
2022/03/29 02:21:59;;;;;;;;;;;;;;;10.44;61.81;100993.50;5030741;28;19925;-76
2022/03/29 02:24:24;;;;;;;;;;;;;;;10.47;62.10;100989.13;5030190;28;20330;-77
2022/03/29 02:26:49;;;;;;;;;;;;;;;10.52;60.75;100989.06;5028025;28;19921;-75
2022/03/29 02:29:15;;;;;;;;;;;;;;;10.50;60.70;100980.41;5028540;28;20310;-75
2022/03/29 02:31:40;;;;;;;;;;;;;;;10.59;59.94;100977.66;5027907;28;19921;-77
2022/03/29 02:34:05;;;;;;;;;;;;;;;10.69;60.21;100975.75;5027958;28;20428;-78
2022/03/29 02:36:31;;;;;;;;;;;;;;;10.58;60.47;100978.56;5012057;28;19921;-79
2022/03/29 02:38:56;;;;;;;;;;;;;;;10.52;60.91;100978.66;5029760;28;19943;-79
2022/03/29 02:41:21;;;;;;;;;;;;;;;10.54;61.31;100971.69;5030575;28;19925;-78
2022/03/29 02:43:46;;;;;;;;;;;;;;;10.59;61.19;100972.47;5030467;28;20375;-76
2022/03/29 02:46:12;;;;;;;;;;;;;;;10.51;61.55;100969.16;5029673;28;20279;-79
2022/03/29 02:48:37;;;;;;;;;;;;;;;10.39;61.66;100967.63;5028014;28;19932;-78
2022/03/29 02:51:02;;;;;;;;;;;;;;;10.36;62.11;100965.06;5008987;28;19922;-80
2022/03/29 02:53:28;;;;;;;;;;;;;;;10.33;62.65;100966.84;5027281;28;22836;-81
2022/03/29 02:55:53;;;;;;;;;;;;;;;10.41;61.98;100968.44;5027612;28;19921;-77
2022/03/29 02:58:19;;;;;;;;;;;;;;;10.37;62.27;100955.56;5027269;28;19928;-77
2022/03/29 03:00:44;;;;;;;;;;;;;;;10.38;62.08;100955.50;5029808;28;19967;-76
2022/03/29 03:03:09;;;;;;;;;;;;;;;10.33;62.61;100951.28;5023797;28;20378;-80
2022/03/29 03:05:35;;;;;;;;;;;;;;;10.39;62.24;100953.78;5028857;28;19925;-78
2022/03/29 03:08:02;;;;;;;;;;;;;;;10.30;62.28;100949.59;5026659;28;19924;-80
2022/03/29 03:10:28;;;;;;;;;;;;;;;10.28;62.25;100950.50;5029707;28;19918;-80
2022/03/29 03:12:53;;;;;;;;;;;;;;;10.28;62.00;100948.78;5029256;28;19951;-80
2022/03/29 03:15:20;;;;;;;;;;;;;;;10.30;62.63;100944.41;5025246;28;19929;-80
2022/03/29 03:17:45;;;;;;;;;;;;;;;10.27;62.54;100941.00;5026516;28;19922;-80
2022/03/29 03:20:12;;;;;;;;;;;;;;;10.31;62.73;100943.53;5011438;28;19925;-78
2022/03/29 03:22:38;;;;;;;;;;;;;;;10.19;62.88;100940.28;5026173;28;19917;-78
2022/03/29 03:25:05;;;;;;;;;;;;;;;10.14;63.27;100935.16;5021424;28;20470;-78
2022/03/29 03:27:30;;;;;;;;;;;;;;;10.26;63.00;100927.16;5020336;28;19923;-75
2022/03/29 03:29:55;;;;;;;;;;;;;;;10.18;63.25;100926.44;5020015;28;19926;-75
2022/03/29 03:32:21;;;;;;;;;;;;;;;10.22;63.21;100924.66;5024213;28;19917;-75
2022/03/29 03:34:46;;;;;;;;;;;;;;;10.25;63.28;100919.41;5017806;28;20056;-75
2022/03/29 03:37:11;;;;;;;;;;;;;;;10.15;63.23;100910.91;5019939;28;19921;-76
2022/03/29 03:39:37;;;;;;;;;;;;;;;10.17;62.89;100916.06;5003066;28;20281;-80
2022/03/29 03:42:06;;;;;;;;;;;;;;;10.15;63.34;100923.88;5017703;28;19972;-80
2022/03/29 03:44:31;;;;;;;;;;;;;;;10.15;63.12;100923.03;5019836;28;19925;-75
2022/03/29 03:46:57;;;;;;;;;;;;;;;10.41;62.03;100915.63;5024344;28;19936;-76
2022/03/29 03:49:22;;;;;;;;;;;;;;;10.34;62.82;100899.31;5028533;28;19967;-75
2022/03/29 03:51:48;;;;;;;;;;;;;;;10.18;62.85;100902.22;5027916;28;19983;-79
2022/03/29 03:54:13;;;;;;;;;;;;;;;10.13;63.30;100907.50;5015147;28;19998;-80
2022/03/29 03:56:39;;;;;;;;;;;;;;;10.20;62.90;100898.69;5029443;28;19917;-79
2022/03/29 03:59:07;;;;;;;;;;;;;;;10.09;63.18;100904.97;5011412;28;19921;-79
2022/03/29 04:01:36;;;;;;;;;;;;;;;10.03;63.47;100903.34;5026146;28;19921;-75
2022/03/29 04:04:01;;;;;;;;;;;;;;;10.12;63.17;100892.78;5030212;28;19928;-75
2022/03/29 04:06:26;;;;;;;;;;;;;;;10.08;63.06;100885.94;5027943;28;19917;-77
2022/03/29 04:08:52;;;;;;;;;;;;;;;10.05;63.46;100893.75;5009722;28;20193;-77
2022/03/29 04:11:18;;;;;;;;;;;;;;;10.08;63.41;100885.09;5008263;28;19983;-77
2022/03/29 04:13:44;;;;;;;;;;;;;;;9.95;63.83;100888.78;5026647;28;20453;-79
2022/03/29 04:16:09;;;;;;;;;;;;;;;10.07;63.54;100880.78;5026829;28;20008;-80
2022/03/29 04:18:34;;;;;;;;;;;;;;;10.00;63.90;100890.41;5007716;28;19921;-75
2022/03/29 04:21:01;;;;;;;;;;;;;;;10.00;63.68;100881.75;5028259;28;19959;-75
2022/03/29 04:23:26;;;;;;;;;;;;;;;10.15;62.24;100876.31;5044233;28;19928;-80
2022/03/29 04:25:52;;;;;;;;;;;;;;;10.11;62.46;100869.44;5026152;28;19944;-81
2022/03/29 04:28:17;;;;;;;;;;;;;;;10.05;62.54;100869.59;5011227;28;19956;-78
2022/03/29 04:30:50;;;;;;;;;;;;;;;10.09;61.60;100871.22;5065379;27;19953;-76
2022/03/29 04:33:17;;;;;;;;;;;;;;;10.06;61.95;100868.69;5030931;28;19925;-78
2022/03/29 04:35:42;;;;;;;;;;;;;;;10.10;61.50;100866.03;5021536;28;19918;-77
2022/03/29 04:38:08;;;;;;;;;;;;;;;10.09;61.49;100858.25;5034310;28;19927;-79
2022/03/29 04:40:33;;;;;;;;;;;;;;;10.09;61.37;100856.50;5037164;28;19928;-78
2022/03/29 04:43:00;;;;;;;;;;;;;;;10.16;61.61;100852.94;5043288;28;19960;-76
2022/03/29 04:45:25;;;;;;;;;;;;;;;10.12;61.31;100853.84;5037823;28;19921;-77
2022/03/29 04:47:51;;;;;;;;;;;;;;;10.16;61.11;100860.72;5040638;28;19975;-76
2022/03/29 04:50:17;;;;;;;;;;;;;;;10.18;61.23;100851.16;5057763;28;20650;-79
2022/03/29 04:52:46;;;;;;;;;;;;;;;10.13;61.25;100857.31;5045078;28;20042;-79
2022/03/29 04:55:12;;;;;;;;;;;;;;;10.21;61.15;100855.44;5044821;28;19925;-79
2022/03/29 04:57:37;;;;;;;;;;;;;;;10.09;61.98;100848.72;5043658;28;20304;-79
2022/03/29 05:00:04;;;;;;;;;;;;;;;9.94;62.38;100845.53;5038362;28;19929;-79
2022/03/29 05:02:30;;;;;;;;;;;;;;;10.03;61.98;100846.22;5039564;28;20302;-79
2022/03/29 05:04:55;;;;;;;;;;;;;;;10.07;61.93;100844.44;5044464;28;19921;-74
2022/03/29 05:07:22;;;;;;;;;;;;;;;10.11;61.66;100841.75;5043729;28;19925;-74
2022/03/29 05:09:48;;;;;;;;;;;;;;;9.81;62.46;100837.91;5030680;28;19929;-74
2022/03/29 05:12:13;;;;;;;;;;;;;;;9.87;62.63;100837.81;5042414;28;19921;-80
2022/03/29 05:14:42;;;;;;;;;;;;;;;9.80;62.60;100833.63;5046675;28;19921;-81
2022/03/29 05:17:07;;;;;;;;;;;;;;;10.00;62.14;100835.91;5038882;28;19967;-80
2022/03/29 05:19:33;;;;;;;;;;;;;;;9.90;62.55;100834.34;5043213;28;19917;-80
2022/03/29 05:21:58;;;;;;;;;;;;;;;9.87;62.04;100823.97;5042980;28;19936;-76
2022/03/29 05:24:23;;;;;;;;;;;;;;;9.92;61.98;100832.59;5043571;28;19936;-75
2022/03/29 05:26:48;;;;;;;;;;;;;;;9.72;62.75;100837.25;5045664;28;19936;-80
2022/03/29 05:29:14;;;;;;;;;;;;;;;9.84;62.65;100832.66;5049018;28;19925;-78
2022/03/29 05:31:39;;;;;;;;;;;;;;;9.85;62.40;100815.38;5050714;28;19921;-80
2022/03/29 05:34:05;;;;;;;;;;;;;;;9.81;62.73;100826.72;5044290;28;19917;-80
2022/03/29 05:36:31;;;;;;;;;;;;;;;9.83;62.64;100822.34;5039809;28;19931;-75
2022/03/29 05:38:57;;;;;;;;;;;;;;;9.91;62.47;100833.47;5043861;28;20044;-80
2022/03/29 05:41:22;;;;;;;;;;;;;;;9.96;62.37;100830.81;5030476;28;19920;-82
2022/03/29 05:43:48;;;;;;;;;;;;;;;9.95;61.94;100834.28;5019709;28;19923;-76
2022/03/29 05:48:59;;;;;;;;;;;;;;;9.88;62.81;100839.53;5022253;28;20432;-81
2022/03/29 05:51:25;;;;;;;;;;;;;;;9.86;62.61;100837.84;5016781;28;19988;-80
2022/03/29 05:53:51;;;;;;;;;;;;;;;9.92;62.38;100837.78;5021540;28;19970;-80
2022/03/29 05:56:19;;;;;;;;;;;;;;;9.76;63.05;100834.56;5030863;28;19913;-78
2022/03/29 05:58:45;;;;;;;;;;;;;;;9.79;62.90;100839.69;5030146;28;20766;-81
2022/03/29 06:01:10;;;;;;;;;;;;;;;9.79;63.23;100841.41;5026823;28;19925;-81
2022/03/29 06:03:35;;;;;;;;;;;;;;;9.73;63.71;100832.00;5039938;28;19996;-81
2022/03/29 06:06:01;;;;;;;;;;;;;;;9.73;63.32;100831.16;5034578;28;19963;-79
2022/03/29 06:08:26;;;;;;;;;;;;;;;9.78;63.91;100834.53;5037678;28;20362;-82
2022/03/29 06:10:53;;;;;;;;;;;;;;;9.69;63.69;100839.88;5031852;28;20360;-82
2022/03/29 06:13:18;;;;;;;;;;;;;;;9.84;63.68;100839.59;5031055;28;19921;-81
2022/03/29 06:15:44;;;;;;;;;;;;;;;9.87;63.65;100840.41;5030042;28;19921;-76
2022/03/29 06:18:09;;;;;;;;;;;;;;;9.86;63.97;100843.03;5025617;28;20034;-81
2022/03/29 06:20:34;;;;;;;;;;;;;;;9.94;63.88;100837.75;5024913;28;19925;-81
2022/03/29 06:23:00;;;;;;;;;;;;;;;9.92;63.23;100839.53;5031664;28;19970;-81
2022/03/29 06:25:25;;;;;;;;;;;;;;;10.03;62.49;100838.44;5030778;28;20311;-75
2022/03/29 06:27:50;;;;;;;;;;;;;;;9.94;62.54;100842.94;5028302;28;19926;-81
2022/03/29 06:30:16;;;;;;;;;;;;;;;10.11;62.46;100838.28;5024801;28;19925;-81
2022/03/29 06:32:45;;;;;;;;;;;;;;;10.11;62.60;100848.69;5025512;28;20008;-77
2022/03/29 06:35:10;;;;;;;;;;;;;;;10.12;63.08;100851.25;5027268;28;19925;-83
2022/03/29 06:37:36;;;;;;;;;;;;;;;10.26;61.87;100851.00;5023147;28;19943;-82
2022/03/29 06:40:01;;;;;;;;;;;;;;;10.16;61.94;100844.28;5022710;28;19929;-76
2022/03/29 06:42:26;;;;;;;;;;;;;;;10.21;61.87;100845.91;5028384;28;19928;-75
2022/03/29 06:44:52;;;;;;;;;;;;;;;10.42;61.21;100850.72;5029850;28;19978;-76
2022/03/29 06:47:17;;;;;;;;;;;;;;;10.30;62.15;100853.53;5029978;28;20327;-77
2022/03/29 06:49:42;;;;;;;;;;;;;;;10.28;61.45;100849.25;5031288;28;19933;-77
2022/03/29 06:52:08;;;;;;;;;;;;;;;10.33;61.17;100850.88;5037780;28;19929;-77
2022/03/29 06:54:33;;;;;;;;;;;;;;;10.33;62.09;100843.09;5033976;28;19921;-82
2022/03/29 06:56:58;;;;;;;;;;;;;;;10.44;62.57;100848.94;5026724;28;20309;-75
2022/03/29 06:59:23;;;;;;;;;;;;;;;10.42;63.07;100850.72;5029565;28;19921;-75
2022/03/29 07:01:49;;;;;;;;;;;;;;;10.53;63.32;100847.88;5029063;28;19923;-77
2022/03/29 07:04:14;;;;;;;;;;;;;;;10.56;63.84;100844.38;5030730;28;20290;-77
2022/03/29 07:06:39;;;;;;;;;;;;;;;10.41;63.97;100848.97;5028059;28;19921;-77
2022/03/29 07:11:49;;;;;;;;;;;;;;;10.35;64.53;100843.03;5030725;28;19936;-82
2022/03/29 07:14:14;;;;;;;;;;;;;;;10.51;64.04;100844.47;5036013;28;19905;-75
2022/03/29 07:16:43;;;;;;;;;;;;;;;10.57;63.72;100840.91;5024654;28;19979;-75
2022/03/29 07:19:08;;;;;;;;;;;;;;;10.62;63.35;100842.50;5027098;28;19929;-81
2022/03/29 07:21:39;;;;;;;;;;;;;;;10.41;63.98;100842.94;5028187;28;20424;-81
2022/03/29 07:24:05;;;;;;;;;;;;;;;10.61;62.77;100851.19;5032373;28;20275;-81
2022/03/29 07:26:31;;;;;;;;;;;;;;;10.58;63.04;100842.63;5027149;28;19913;-81
2022/03/29 07:28:57;;;;;;;;;;;;;;;10.50;63.44;100845.34;5024971;28;20396;-77
2022/03/29 07:31:23;;;;;;;;;;;;;;;10.47;64.01;100854.06;5025178;28;19929;-77
2022/03/29 07:33:48;;;;;;;;;;;;;;;10.44;63.96;100848.06;5031442;28;20452;-78
2022/03/29 07:36:13;;;;;;;;;;;;;;;10.45;63.36;100848.06;5023371;28;20008;-81
2022/03/29 07:38:39;;;;;;;;;;;;;;;10.49;62.14;100848.00;5036289;28;19949;-81
2022/03/29 07:41:04;;;;;;;;;;;;;;;10.51;63.13;100844.47;5025549;28;19921;-77
2022/03/29 07:43:30;;;;;;;;;;;;;;;10.61;62.89;100850.34;5029368;28;20303;-80
2022/03/29 07:45:56;;;;;;;;;;;;;;;10.57;63.02;100846.94;5031118;28;19975;-81
2022/03/29 07:48:22;;;;;;;;;;;;;;;10.55;63.15;100847.88;5022569;28;19925;-81
2022/03/29 07:50:48;;;;;;;;;;;;;;;10.62;62.93;100844.25;5025349;28;19952;-76
2022/03/29 07:53:13;;;;;;;;;;;;;;;10.65;62.94;100847.66;5023855;28;19952;-75
2022/03/29 07:55:45;;;;;;;;;;;;;;;10.64;62.64;100842.50;5040563;28;19921;-81
2022/03/29 07:58:10;;;;;;;;;;;;;;;10.70;61.26;100837.19;5028829;28;19924;-82
2022/03/29 08:00:36;;;;;;;;;;;;;;;10.68;62.13;100842.41;5030801;28;19925;-78
2022/03/29 08:03:05;;;;;;;;;;;;;;;10.80;62.40;100849.06;5027700;28;19948;-81
2022/03/29 08:05:33;;;;;;;;;;;;;;;10.82;61.32;100842.97;5037057;28;19917;-81
2022/03/29 08:07:58;;;;;;;;;;;;;;;10.88;60.73;100836.78;5025592;28;20008;-77
2022/03/29 08:10:25;;;;;;;;;;;;;;;10.85;60.28;100826.47;5027589;28;20020;-81
2022/03/29 08:12:51;;;;;;;;;;;;;;;10.91;61.32;100826.31;5028881;28;19952;-82
2022/03/29 08:15:16;;;;;;;;;;;;;;;10.88;61.83;100831.56;5027591;28;19975;-75
2022/03/29 08:17:41;;;;;;;;;;;;;;;11.05;60.84;100831.22;5020404;28;19951;-76
2022/03/29 08:20:10;;;;;;;;;;;;;;;10.93;60.69;100837.56;5025729;28;19944;-82
2022/03/29 08:22:35;;;;;;;;;;;;;;;10.96;60.73;100834.88;5029795;28;19929;-78
2022/03/29 08:25:01;;;;;;;;;;;;;;;11.02;61.54;100824.34;5030758;28;19975;-78
2022/03/29 08:27:26;;;;;;;;;;;;;;;11.05;61.17;100820.84;5033054;28;19929;-82
2022/03/29 08:29:52;;;;;;;;;;;;;;;11.11;61.05;100821.56;5027843;28;20017;-82
2022/03/29 08:32:18;;;;;;;;;;;;;;;11.15;61.35;100815.38;5028084;28;20381;-81
2022/03/29 08:34:43;;;;;;;;;;;;;;;11.19;60.68;100810.97;5025816;28;19928;-82
2022/03/29 08:37:09;;;;;;;;;;;;;;;11.21;60.18;100803.97;5018352;28;19921;-82
2022/03/29 08:39:34;;;;;;;;;;;;;;;11.19;61.25;100805.78;5031129;28;19978;-76
2022/03/29 08:42:06;;;;;;;;;;;;;;;11.20;61.77;100799.69;5022697;28;19929;-82
2022/03/29 08:44:31;;;;;;;;;;;;;;;11.23;61.68;100799.63;5027983;28;19917;-77
2022/03/29 08:46:57;;;;;;;;;;;;;;;11.19;60.76;100808.38;5026607;28;20012;-78
2022/03/29 08:49:23;;;;;;;;;;;;;;;11.12;60.51;100807.66;5024766;28;20066;-82
2022/03/29 08:51:48;;;;;;;;;;;;;;;11.19;60.70;100801.44;5047384;28;19952;-82
2022/03/29 08:54:14;;;;;;;;;;;;;;;11.26;61.14;100791.75;5021918;28;20369;-82
2022/03/29 08:56:40;;;;;;;;;;;;;;;11.40;60.09;100785.38;5025586;28;19921;-82
2022/03/29 08:59:05;;;;;;;;;;;;;;;11.42;59.60;100793.97;5025557;28;19984;-82
2022/03/29 09:01:31;;;;;;;;;;;;;;;11.36;60.22;100786.31;5027496;28;20405;-76
2022/03/29 09:04:22;;;;;;;;;;;;;;;11.43;59.71;100776.63;5026460;28;20344;-80
2022/03/29 09:06:54;;;;;;;;;;;;;;;11.64;59.63;100775.25;5011323;28;20016;-78
2022/03/29 09:09:26;;;;;;;;;;;;;;;11.63;59.93;100774.38;5013605;28;19929;-78
2022/03/29 09:11:53;;;;;;;;;;;;;;;11.51;59.68;100772.09;5025302;28;19936;-82
2022/03/29 09:14:19;;;;;;;;;;;;;;;11.63;59.31;100770.91;5024759;28;19928;-83
2022/03/29 09:16:44;;;;;;;;;;;;;;;11.67;59.08;100767.34;5028172;28;20477;-79
2022/03/29 09:19:10;;;;;;;;;;;;;;;11.67;59.53;100759.56;5010817;28;19975;-75
2022/03/29 09:21:42;;;;;;;;;;;;;;;11.72;59.20;100757.69;5029963;28;20019;-75
2022/03/29 09:24:14;;;;;;;;;;;;;;;11.88;57.62;100765.06;5031314;28;20400;-76
2022/03/29 09:26:41;;;;;;;;;;;;;;;11.81;58.07;100758.31;5027665;28;19917;-75
2022/03/29 09:29:13;;;;;;;;;;;;;;;11.71;58.63;100756.81;5027001;28;19986;-75
2022/03/29 09:31:39;;;;;;;;;;;;;;;11.71;59.17;100754.22;5031220;28;19932;-75
2022/03/29 09:34:16;;;;;;;;;;;;;;;11.71;58.43;100756.81;5035248;28;19921;-75
2022/03/29 09:36:43;;;;;;;;;;;;;;;11.69;58.53;100756.00;5023202;28;19921;-75
2022/03/29 09:39:09;;;;;;;;;;;;;;;11.78;58.91;100749.72;5027287;28;19929;-78
2022/03/29 09:41:36;;;;;;;;;;;;;;;11.82;57.94;100748.75;5030931;28;20405;-78
2022/03/29 09:44:08;;;;;;;;;;;;;;;11.90;58.21;100747.66;5034261;28;20472;-79
2022/03/29 09:47:04;;;;;;;;;;;;;;;11.91;57.85;100745.91;5032283;28;19960;-78
2022/03/29 09:49:30;;;;;;;;;;;;;;;11.88;57.63;100741.63;5042092;28;19925;-78
2022/03/29 09:52:09;;;;;;;;;;;;;;;11.99;56.41;100737.00;5025524;28;19959;-83
2022/03/29 09:54:35;;;;;;;;;;;;;;;12.01;56.54;100727.38;5029944;28;20440;-83
2022/03/29 09:57:00;;;;;;;;;;;;;;;12.08;56.34;100726.31;5026900;28;20015;-75
2022/03/29 09:59:26;;;;;;;;;;;;;;;12.00;55.40;100717.03;5037647;28;19921;-75
2022/03/29 10:01:54;;;;;;;;;;;;;;;12.00;54.42;100709.22;5024603;28;20028;-80
2022/03/29 10:04:20;;;;;;;;;;;;;;;12.05;54.71;100707.31;5050354;28;19920;-80
2022/03/29 10:06:49;;;;;;;;;;;;;;;12.15;54.77;100706.19;5029689;28;19928;-78
2022/03/29 10:09:30;;;;;;;;;;;;;;;12.15;54.26;100702.72;5029379;28;20352;-83
2022/03/29 10:12:06;;;;;;;;;;;;;;;12.25;54.52;100696.34;5042504;28;19928;-82
2022/03/29 10:14:32;;;;;;;;;;;;;;;12.26;54.35;100701.50;5029176;28;19956;-75
2022/03/29 10:16:58;;;;;;;;;;;;;;;12.22;52.82;100693.81;5025495;28;19917;-75
2022/03/29 10:19:24;;;;;;;;;;;;;;;12.25;51.76;100693.72;5027778;28;19940;-81
2022/03/29 10:21:50;;;;;;;;;;;;;;;12.31;52.97;100690.94;5025342;28;19960;-80
2022/03/29 10:24:16;;;;;;;;;;;;;;;12.32;51.91;100677.03;5026838;28;19925;-80
2022/03/29 10:26:42;;;;;;;;;;;;;;;12.37;53.43;100675.13;5029990;28;19917;-80
2022/03/29 10:29:08;;;;;;;;;;;;;;;12.38;52.32;100671.66;5030603;28;19995;-80
2022/03/29 10:31:36;;;;;;;;;;;;;;;12.40;52.49;100662.03;5027471;28;20425;-80
2022/03/29 10:34:16;;;;;;;;;;;;;;;12.46;53.11;100659.22;5028241;28;19929;-80
2022/03/29 10:37:01;;;;;;;;;;;;;;;12.42;51.31;100657.63;5028573;28;19971;-75
2022/03/29 10:39:45;;;;;;;;;;;;;;;12.47;53.44;100658.34;5025922;28;20386;-75
2022/03/29 10:42:30;;;;;;;;;;;;;;;12.51;53.35;100655.59;5027796;28;20074;-82
2022/03/29 10:45:05;;;;;;;;;;;;;;;12.63;51.84;100650.03;5027975;28;19932;-81
2022/03/29 10:47:31;;;;;;;;;;;;;;;12.62;50.55;100645.75;5026104;28;19918;-78
2022/03/29 10:49:57;;;;;;;;;;;;;;;12.59;50.54;100643.22;5031148;28;19979;-81
2022/03/29 10:52:22;;;;;;;;;;;;;;;12.66;49.53;100639.50;5035326;28;19925;-82
2022/03/29 10:54:48;;;;;;;;;;;;;;;12.73;49.27;100639.31;5034809;28;20010;-78
2022/03/29 10:57:14;;;;;;;;;;;;;;;12.68;49.24;100631.66;5033675;28;20381;-83
2022/03/29 10:59:42;;;;;;;;;;;;;;;12.67;48.95;100637.75;5036359;28;19949;-83
2022/03/29 11:02:26;;;;;;;;;;;;;;;12.66;49.86;100625.66;5036584;28;20548;-82
2022/03/29 11:05:00;;;;;;;;;;;;;;;12.63;48.84;100623.16;5026207;28;19925;-82
2022/03/29 11:07:30;;;;;;;;;;;;;;;12.73;50.61;100626.28;5028200;28;19921;-83
2022/03/29 11:10:15;;;;;;;;;;;;;;;12.70;50.59;100616.81;5044573;28;19972;-82
2022/03/29 11:12:44;;;;;;;;;;;;;;;12.74;49.75;100610.63;5028138;28;20333;-82
2022/03/29 11:15:24;;;;;;;;;;;;;;;12.74;50.00;100612.38;5027343;28;19921;-81
2022/03/29 11:17:54;;;;;;;;;;;;;;;12.74;49.07;100609.75;5024545;28;19955;-81
2022/03/29 11:20:46;;;;;;;;;;;;;;;12.74;49.41;100602.78;5034448;28;19961;-82
2022/03/29 11:23:11;;;;;;;;;;;;;;;12.76;48.95;100597.50;5017568;28;19925;-81
2022/03/29 11:25:40;;;;;;;;;;;;;;;12.69;47.27;100594.25;5029025;28;19947;-81
2022/03/29 11:28:10;;;;;;;;;;;;;;;12.80;47.53;100593.91;5026007;28;20318;-81
2022/03/29 11:30:35;;;;;;;;;;;;;;;12.82;49.27;100590.34;5030903;28;19925;-82
2022/03/29 11:33:05;;;;;;;;;;;;;;;12.85;47.25;100589.41;5029941;28;20283;-82
2022/03/29 11:35:34;;;;;;;;;;;;;;;12.86;47.61;100591.97;5029636;28;19921;-79
2022/03/29 11:38:26;;;;;;;;;;;;;;;12.93;47.78;100580.41;5029879;28;19928;-78
2022/03/29 11:40:51;;;;;;;;;;;;;;;12.98;48.25;100573.31;5028112;28;20364;-78
2022/03/29 11:43:21;;;;;;;;;;;;;;;13.00;48.01;100574.09;5028755;28;19921;-78
2022/03/29 11:45:47;;;;;;;;;;;;;;;12.96;49.12;100572.50;5031627;28;19925;-82
2022/03/29 11:48:14;;;;;;;;;;;;;;;12.91;50.11;100565.72;5026545;28;19925;-82
2022/03/29 11:50:39;;;;;;;;;;;;;;;12.97;47.17;100563.78;5026314;28;19965;-81
2022/03/29 11:53:18;;;;;;;;;;;;;;;12.96;46.58;100554.22;5029563;28;19959;-81
2022/03/29 11:55:52;;;;;;;;;;;;;;;13.00;47.50;100553.25;5024283;28;19920;-81
2022/03/29 11:58:32;;;;;;;;;;;;;;;13.08;46.97;100547.75;5027359;28;19921;-81
2022/03/29 12:00:58;;;;;;;;;;;;;;;13.07;47.00;100544.31;5029874;28;19935;-76
2022/03/29 12:03:32;;;;;;;;;;;;;;;13.07;47.34;100544.31;5025514;28;19929;-82
2022/03/29 12:06:17;;;;;;;;;;;;;;;13.08;46.70;100535.56;5026903;28;19951;-82
2022/03/29 12:08:56;;;;;;;;;;;;;;;13.13;47.13;100536.28;5025552;28;20393;-76
2022/03/29 12:11:26;;;;;;;;;;;;;;;13.20;48.33;100529.91;5025290;28;20059;-82
2022/03/29 12:13:59;;;;;;;;;;;;;;;13.10;47.22;100535.53;5025234;28;20008;-76
2022/03/29 12:16:25;;;;;;;;;;;;;;;13.12;48.35;100537.16;5022760;28;20344;-76
2022/03/29 12:18:51;;;;;;;;;;;;;;;13.15;47.81;100520.56;5023847;28;19929;-81
2022/03/29 12:21:18;;;;;;;;;;;;;;;13.20;48.29;100516.03;5017285;28;19924;-81
2022/03/29 12:23:43;;;;;;;;;;;;;;;13.22;48.13;100519.44;5028591;28;19920;-80
2022/03/29 12:26:13;;;;;;;;;;;;;;;13.22;48.19;100506.41;5028658;28;19945;-81
2022/03/29 12:28:39;;;;;;;;;;;;;;;13.24;47.26;100504.59;5022604;28;20019;-76
2022/03/29 12:31:08;;;;;;;;;;;;;;;13.22;48.42;100507.22;5023090;28;20003;-78
2022/03/29 12:33:37;;;;;;;;;;;;;;;13.31;48.13;100502.63;5026285;28;19976;-78
2022/03/29 12:36:02;;;;;;;;;;;;;;;13.33;47.90;100492.97;5020612;28;19921;-78
2022/03/29 12:38:37;;;;;;;;;;;;;;;13.33;47.56;100496.44;5019548;28;20370;-78
2022/03/29 12:41:03;;;;;;;;;;;;;;;13.32;48.34;100489.50;5018353;28;20079;-75
2022/03/29 12:43:33;;;;;;;;;;;;;;;13.32;46.40;100480.81;5026193;28;19940;-82
2022/03/29 12:45:58;;;;;;;;;;;;;;;13.34;47.33;100490.31;5022910;28;20452;-82